sensor_id;sensor_type;location;lat;lon;timestamp;temperature;humidity
21698;DHT22;11010;49.548;11.926;2023-07-20T00:02:07;22.40;99.90
21698;DHT22;11010;49.548;11.926;2023-07-20T00:04:52;22.20;99.90
21698;DHT22;11010;49.548;11.926;2023-07-20T00:07:19;22.20;99.90
21698;DHT22;11010;49.548;11.926;2023-07-20T00:10:04;22.30;99.90
21698;DHT22;11010;49.548;11.926;2023-07-20T00:12:48;21.80;99.90
21698;DHT22;11010;49.548;11.926;2023-07-20T00:15:15;21.90;99.90
21698;DHT22;11010;49.548;11.926;2023-07-20T00:17:42;21.90;99.90
21698;DHT22;11010;49.548;11.926;2023-07-20T00:20:11;22.00;99.90
21698;DHT22;11010;49.548;11.926;2023-07-20T00:22:57;22.10;99.90
21698;DHT22;11010;49.548;11.926;2023-07-20T00:25:42;22.10;99.90
21698;DHT22;11010;49.548;11.926;2023-07-20T00:28:09;22.10;99.90
21698;DHT22;11010;49.548;11.926;2023-07-20T00:30:38;22.10;99.90
21698;DHT22;11010;49.548;11.926;2023-07-20T00:33:06;22.00;99.90
21698;DHT22;11010;49.548;11.926;2023-07-20T00:35:35;22.00;99.90
21698;DHT22;11010;49.548;11.926;2023-07-20T00:38:03;21.90;99.90
21698;DHT22;11010;49.548;11.926;2023-07-20T00:40:47;22.00;99.90
21698;DHT22;11010;49.548;11.926;2023-07-20T00:43:33;22.00;99.90
21698;DHT22;11010;49.548;11.926;2023-07-20T00:46:00;21.90;99.90
21698;DHT22;11010;49.548;11.926;2023-07-20T00:48:30;21.90;99.90
21698;DHT22;11010;49.548;11.926;2023-07-20T00:50:59;22.00;99.90
21698;DHT22;11010;49.548;11.926;2023-07-20T00:53:27;22.00;99.90
21698;DHT22;11010;49.548;11.926;2023-07-20T00:55:55;22.00;99.90
21698;DHT22;11010;49.548;11.926;2023-07-20T00:58:22;21.90;99.90
21698;DHT22;11010;49.548;11.926;2023-07-20T01:00:50;21.90;99.90
21698;DHT22;11010;49.548;11.926;2023-07-20T01:03:19;21.90;99.90
21698;DHT22;11010;49.548;11.926;2023-07-20T01:09:02;21.80;99.90
21698;DHT22;11010;49.548;11.926;2023-07-20T01:11:37;21.80;99.90
21698;DHT22;11010;49.548;11.926;2023-07-20T01:14:05;21.80;99.90
21698;DHT22;11010;49.548;11.926;2023-07-20T01:16:33;21.80;99.90
21698;DHT22;11010;49.548;11.926;2023-07-20T01:19:01;21.80;99.90
21698;DHT22;11010;49.548;11.926;2023-07-20T01:21:37;21.80;99.90
21698;DHT22;11010;49.548;11.926;2023-07-20T01:32:32;21.50;99.90
21698;DHT22;11010;49.548;11.926;2023-07-20T01:35:02;21.50;99.90
21698;DHT22;11010;49.548;11.926;2023-07-20T01:37:34;21.60;99.90
21698;DHT22;11010;49.548;11.926;2023-07-20T01:40:01;21.50;99.90
21698;DHT22;11010;49.548;11.926;2023-07-20T01:42:29;21.40;99.90
21698;DHT22;11010;49.548;11.926;2023-07-20T01:44:56;21.40;99.90
21698;DHT22;11010;49.548;11.926;2023-07-20T01:47:23;21.50;99.90
21698;DHT22;11010;49.548;11.926;2023-07-20T01:49:50;21.40;99.90
21698;DHT22;11010;49.548;11.926;2023-07-20T01:52:18;21.30;99.90
21698;DHT22;11010;49.548;11.926;2023-07-20T01:54:45;21.30;99.90
21698;DHT22;11010;49.548;11.926;2023-07-20T01:57:12;21.40;99.90
21698;DHT22;11010;49.548;11.926;2023-07-20T01:59:39;21.40;99.90
21698;DHT22;11010;49.548;11.926;2023-07-20T02:02:06;21.40;99.90
21698;DHT22;11010;49.548;11.926;2023-07-20T02:04:33;21.40;99.90
21698;DHT22;11010;49.548;11.926;2023-07-20T02:07:00;21.40;99.90
21698;DHT22;11010;49.548;11.926;2023-07-20T02:09:27;21.40;99.90
21698;DHT22;11010;49.548;11.926;2023-07-20T02:11:54;21.30;99.90
21698;DHT22;11010;49.548;11.926;2023-07-20T02:14:21;21.30;99.90
21698;DHT22;11010;49.548;11.926;2023-07-20T02:16:49;21.30;99.90
21698;DHT22;11010;49.548;11.926;2023-07-20T02:19:21;21.30;99.90
21698;DHT22;11010;49.548;11.926;2023-07-20T02:21:48;21.20;99.90
21698;DHT22;11010;49.548;11.926;2023-07-20T02:24:15;21.30;99.90
21698;DHT22;11010;49.548;11.926;2023-07-20T02:26:42;21.10;99.90
21698;DHT22;11010;49.548;11.926;2023-07-20T02:29:10;21.10;99.90
21698;DHT22;11010;49.548;11.926;2023-07-20T02:31:38;21.10;99.90
21698;DHT22;11010;49.548;11.926;2023-07-20T02:34:06;21.00;99.90
21698;DHT22;11010;49.548;11.926;2023-07-20T02:36:34;21.10;99.90
21698;DHT22;11010;49.548;11.926;2023-07-20T02:39:01;21.10;99.90
21698;DHT22;11010;49.548;11.926;2023-07-20T02:41:33;21.10;99.90
21698;DHT22;11010;49.548;11.926;2023-07-20T02:44:00;20.90;99.90
21698;DHT22;11010;49.548;11.926;2023-07-20T02:46:28;21.00;99.90
21698;DHT22;11010;49.548;11.926;2023-07-20T02:48:57;21.00;99.90
21698;DHT22;11010;49.548;11.926;2023-07-20T02:51:25;21.10;99.90
21698;DHT22;11010;49.548;11.926;2023-07-20T02:53:52;21.10;99.90
21698;DHT22;11010;49.548;11.926;2023-07-20T02:56:19;20.80;99.90
21698;DHT22;11010;49.548;11.926;2023-07-20T02:58:46;21.00;99.90
21698;DHT22;11010;49.548;11.926;2023-07-20T03:01:14;21.00;99.90
21698;DHT22;11010;49.548;11.926;2023-07-20T03:03:42;21.10;99.90
21698;DHT22;11010;49.548;11.926;2023-07-20T03:06:14;21.10;99.90
21698;DHT22;11010;49.548;11.926;2023-07-20T03:08:43;20.50;99.90
21698;DHT22;11010;49.548;11.926;2023-07-20T03:11:16;20.40;99.90
21698;DHT22;11010;49.548;11.926;2023-07-20T03:13:44;20.60;99.90
21698;DHT22;11010;49.548;11.926;2023-07-20T03:16:12;20.50;99.90
21698;DHT22;11010;49.548;11.926;2023-07-20T03:18:42;20.60;99.90
21698;DHT22;11010;49.548;11.926;2023-07-20T03:21:10;20.70;99.90
21698;DHT22;11010;49.548;11.926;2023-07-20T03:23:41;20.80;99.90
21698;DHT22;11010;49.548;11.926;2023-07-20T03:26:09;20.80;99.90
21698;DHT22;11010;49.548;11.926;2023-07-20T03:28:38;20.70;99.90
21698;DHT22;11010;49.548;11.926;2023-07-20T03:31:06;20.60;99.90
21698;DHT22;11010;49.548;11.926;2023-07-20T03:33:37;20.50;99.90
21698;DHT22;11010;49.548;11.926;2023-07-20T03:36:04;20.30;99.90
21698;DHT22;11010;49.548;11.926;2023-07-20T03:38:31;20.30;99.90
21698;DHT22;11010;49.548;11.926;2023-07-20T03:41:00;20.00;99.90
21698;DHT22;11010;49.548;11.926;2023-07-20T03:43:28;19.90;99.90
21698;DHT22;11010;49.548;11.926;2023-07-20T03:45:55;19.60;99.90
21698;DHT22;11010;49.548;11.926;2023-07-20T03:48:25;20.00;99.90
21698;DHT22;11010;49.548;11.926;2023-07-20T03:50:53;20.00;99.90
21698;DHT22;11010;49.548;11.926;2023-07-20T03:53:21;20.40;99.90
21698;DHT22;11010;49.548;11.926;2023-07-20T03:55:52;20.30;99.90
21698;DHT22;11010;49.548;11.926;2023-07-20T03:58:19;20.20;99.90
21698;DHT22;11010;49.548;11.926;2023-07-20T04:00:51;19.90;99.90
21698;DHT22;11010;49.548;11.926;2023-07-20T04:03:19;20.10;99.90
21698;DHT22;11010;49.548;11.926;2023-07-20T04:05:47;19.90;99.90
21698;DHT22;11010;49.548;11.926;2023-07-20T04:08:14;19.70;99.90
21698;DHT22;11010;49.548;11.926;2023-07-20T04:10:45;19.90;99.90
21698;DHT22;11010;49.548;11.926;2023-07-20T04:13:12;19.80;99.90
21698;DHT22;11010;49.548;11.926;2023-07-20T04:15:39;20.00;99.90
21698;DHT22;11010;49.548;11.926;2023-07-20T04:18:06;19.70;99.90
21698;DHT22;11010;49.548;11.926;2023-07-20T04:20:34;19.70;99.90
21698;DHT22;11010;49.548;11.926;2023-07-20T04:23:01;19.10;99.90
21698;DHT22;11010;49.548;11.926;2023-07-20T04:25:29;18.80;99.90
21698;DHT22;11010;49.548;11.926;2023-07-20T04:27:56;18.80;99.90
21698;DHT22;11010;49.548;11.926;2023-07-20T04:30:23;19.20;99.90
21698;DHT22;11010;49.548;11.926;2023-07-20T04:32:50;19.10;99.90
21698;DHT22;11010;49.548;11.926;2023-07-20T04:35:53;18.80;99.90
21698;DHT22;11010;49.548;11.926;2023-07-20T04:38:34;19.10;99.90
21698;DHT22;11010;49.548;11.926;2023-07-20T04:41:08;18.90;99.90
21698;DHT22;11010;49.548;11.926;2023-07-20T04:43:44;18.70;99.90
21698;DHT22;11010;49.548;11.926;2023-07-20T04:46:14;19.00;99.90
21698;DHT22;11010;49.548;11.926;2023-07-20T04:48:42;18.50;99.90
21698;DHT22;11010;49.548;11.926;2023-07-20T04:51:09;18.60;99.90
21698;DHT22;11010;49.548;11.926;2023-07-20T04:53:38;19.00;99.90
21698;DHT22;11010;49.548;11.926;2023-07-20T04:56:08;18.80;99.90
21698;DHT22;11010;49.548;11.926;2023-07-20T04:58:35;19.20;99.90
21698;DHT22;11010;49.548;11.926;2023-07-20T05:01:02;19.40;99.90
21698;DHT22;11010;49.548;11.926;2023-07-20T05:03:31;19.80;99.90
21698;DHT22;11010;49.548;11.926;2023-07-20T05:05:58;18.90;99.90
21698;DHT22;11010;49.548;11.926;2023-07-20T05:08:25;19.00;99.90
21698;DHT22;11010;49.548;11.926;2023-07-20T05:10:54;18.80;99.90
21698;DHT22;11010;49.548;11.926;2023-07-20T05:13:21;18.90;99.90
21698;DHT22;11010;49.548;11.926;2023-07-20T05:15:53;18.80;99.90
21698;DHT22;11010;49.548;11.926;2023-07-20T05:18:23;18.80;99.90
21698;DHT22;11010;49.548;11.926;2023-07-20T05:20:51;19.30;99.90
21698;DHT22;11010;49.548;11.926;2023-07-20T05:23:19;19.10;99.90
21698;DHT22;11010;49.548;11.926;2023-07-20T05:25:56;19.00;99.90
21698;DHT22;11010;49.548;11.926;2023-07-20T05:28:24;19.00;99.90
21698;DHT22;11010;49.548;11.926;2023-07-20T05:30:51;19.00;99.90
21698;DHT22;11010;49.548;11.926;2023-07-20T05:33:20;18.80;99.90
21698;DHT22;11010;49.548;11.926;2023-07-20T05:35:47;18.80;99.90
21698;DHT22;11010;49.548;11.926;2023-07-20T05:38:14;18.90;99.90
21698;DHT22;11010;49.548;11.926;2023-07-20T05:40:42;19.20;99.90
21698;DHT22;11010;49.548;11.926;2023-07-20T05:43:12;19.30;99.90
21698;DHT22;11010;49.548;11.926;2023-07-20T05:45:43;19.40;99.90
21698;DHT22;11010;49.548;11.926;2023-07-20T05:48:10;19.10;99.90
21698;DHT22;11010;49.548;11.926;2023-07-20T05:50:42;19.00;99.90
21698;DHT22;11010;49.548;11.926;2023-07-20T05:53:10;19.50;99.90
21698;DHT22;11010;49.548;11.926;2023-07-20T05:55:37;19.20;99.90
21698;DHT22;11010;49.548;11.926;2023-07-20T05:58:06;19.10;99.90
21698;DHT22;11010;49.548;11.926;2023-07-20T06:00:33;19.00;99.90
21698;DHT22;11010;49.548;11.926;2023-07-20T06:03:00;18.90;99.90
21698;DHT22;11010;49.548;11.926;2023-07-20T06:05:27;19.00;99.90
21698;DHT22;11010;49.548;11.926;2023-07-20T06:07:56;19.10;99.90
21698;DHT22;11010;49.548;11.926;2023-07-20T06:10:24;19.30;99.90
21698;DHT22;11010;49.548;11.926;2023-07-20T06:12:51;19.40;99.90
21698;DHT22;11010;49.548;11.926;2023-07-20T06:15:34;19.30;99.90
21698;DHT22;11010;49.548;11.926;2023-07-20T06:18:05;19.00;99.90
21698;DHT22;11010;49.548;11.926;2023-07-20T06:20:33;19.30;99.90
21698;DHT22;11010;49.548;11.926;2023-07-20T06:23:00;19.20;99.90
21698;DHT22;11010;49.548;11.926;2023-07-20T06:25:27;19.40;99.90
21698;DHT22;11010;49.548;11.926;2023-07-20T06:27:55;19.40;99.90
21698;DHT22;11010;49.548;11.926;2023-07-20T06:30:23;19.30;99.90
21698;DHT22;11010;49.548;11.926;2023-07-20T06:32:51;19.30;99.90
21698;DHT22;11010;49.548;11.926;2023-07-20T06:35:19;19.30;99.90
21698;DHT22;11010;49.548;11.926;2023-07-20T06:37:46;19.20;99.90
21698;DHT22;11010;49.548;11.926;2023-07-20T06:40:13;19.20;99.90
21698;DHT22;11010;49.548;11.926;2023-07-20T06:42:43;19.20;99.90
21698;DHT22;11010;49.548;11.926;2023-07-20T06:45:13;19.60;99.90
21698;DHT22;11010;49.548;11.926;2023-07-20T06:47:40;19.20;99.90
21698;DHT22;11010;49.548;11.926;2023-07-20T06:50:08;19.10;99.90
21698;DHT22;11010;49.548;11.926;2023-07-20T06:52:35;19.40;99.90
21698;DHT22;11010;49.548;11.926;2023-07-20T06:55:03;19.40;99.90
21698;DHT22;11010;49.548;11.926;2023-07-20T06:57:32;19.40;99.90
21698;DHT22;11010;49.548;11.926;2023-07-20T06:59:59;19.40;99.90
21698;DHT22;11010;49.548;11.926;2023-07-20T07:02:26;19.70;99.90
21698;DHT22;11010;49.548;11.926;2023-07-20T07:04:53;19.30;99.90
21698;DHT22;11010;49.548;11.926;2023-07-20T07:07:25;19.30;99.90
21698;DHT22;11010;49.548;11.926;2023-07-20T07:09:53;19.80;99.90
21698;DHT22;11010;49.548;11.926;2023-07-20T07:12:20;20.00;99.90
21698;DHT22;11010;49.548;11.926;2023-07-20T07:14:48;20.10;99.90
21698;DHT22;11010;49.548;11.926;2023-07-20T07:17:15;20.20;99.90
21698;DHT22;11010;49.548;11.926;2023-07-20T07:19:45;19.90;99.90
21698;DHT22;11010;49.548;11.926;2023-07-20T07:22:15;19.90;99.90
21698;DHT22;11010;49.548;11.926;2023-07-20T07:24:42;20.00;99.90
21698;DHT22;11010;49.548;11.926;2023-07-20T07:27:10;20.20;99.90
21698;DHT22;11010;49.548;11.926;2023-07-20T07:29:37;20.00;99.90
21698;DHT22;11010;49.548;11.926;2023-07-20T07:32:04;19.90;99.90
21698;DHT22;11010;49.548;11.926;2023-07-20T07:34:32;19.80;99.90
21698;DHT22;11010;49.548;11.926;2023-07-20T07:37:01;20.00;99.90
21698;DHT22;11010;49.548;11.926;2023-07-20T07:39:29;20.20;99.90
21698;DHT22;11010;49.548;11.926;2023-07-20T07:42:01;20.10;99.90
21698;DHT22;11010;49.548;11.926;2023-07-20T07:44:28;20.10;99.90
21698;DHT22;11010;49.548;11.926;2023-07-20T07:46:56;20.40;99.90
21698;DHT22;11010;49.548;11.926;2023-07-20T07:49:23;20.30;99.90
21698;DHT22;11010;49.548;11.926;2023-07-20T07:51:51;20.10;99.90
21698;DHT22;11010;49.548;11.926;2023-07-20T07:54:18;20.20;99.90
21698;DHT22;11010;49.548;11.926;2023-07-20T07:56:45;20.20;99.90
21698;DHT22;11010;49.548;11.926;2023-07-20T07:59:12;20.40;99.90
21698;DHT22;11010;49.548;11.926;2023-07-20T08:01:40;20.60;99.90
21698;DHT22;11010;49.548;11.926;2023-07-20T08:04:07;20.40;99.90
21698;DHT22;11010;49.548;11.926;2023-07-20T08:06:35;20.40;99.90
21698;DHT22;11010;49.548;11.926;2023-07-20T08:09:02;20.50;99.90
21698;DHT22;11010;49.548;11.926;2023-07-20T08:11:30;20.60;99.90
21698;DHT22;11010;49.548;11.926;2023-07-20T08:13:58;20.50;99.90
21698;DHT22;11010;49.548;11.926;2023-07-20T08:16:26;20.50;99.90
21698;DHT22;11010;49.548;11.926;2023-07-20T08:18:54;20.70;99.90
21698;DHT22;11010;49.548;11.926;2023-07-20T08:21:21;20.90;99.90
21698;DHT22;11010;49.548;11.926;2023-07-20T08:23:49;21.00;99.90
21698;DHT22;11010;49.548;11.926;2023-07-20T08:26:16;20.90;99.90
21698;DHT22;11010;49.548;11.926;2023-07-20T08:28:44;20.50;99.90
21698;DHT22;11010;49.548;11.926;2023-07-20T08:31:12;20.90;99.90
21698;DHT22;11010;49.548;11.926;2023-07-20T08:33:40;21.20;99.90
21698;DHT22;11010;49.548;11.926;2023-07-20T08:36:07;21.50;99.90
21698;DHT22;11010;49.548;11.926;2023-07-20T08:38:38;21.30;99.90
21698;DHT22;11010;49.548;11.926;2023-07-20T08:41:05;21.00;99.90
21698;DHT22;11010;49.548;11.926;2023-07-20T08:43:33;21.20;99.90
21698;DHT22;11010;49.548;11.926;2023-07-20T08:46:02;21.20;99.90
21698;DHT22;11010;49.548;11.926;2023-07-20T08:48:31;21.60;99.90
21698;DHT22;11010;49.548;11.926;2023-07-20T08:50:58;21.30;99.90
21698;DHT22;11010;49.548;11.926;2023-07-20T08:53:28;21.10;99.90
21698;DHT22;11010;49.548;11.926;2023-07-20T08:55:56;20.80;99.90
21698;DHT22;11010;49.548;11.926;2023-07-20T08:58:25;21.30;99.90
21698;DHT22;11010;49.548;11.926;2023-07-20T09:00:54;21.60;99.90
21698;DHT22;11010;49.548;11.926;2023-07-20T09:03:22;21.10;99.90
21698;DHT22;11010;49.548;11.926;2023-07-20T09:05:49;20.80;99.90
21698;DHT22;11010;49.548;11.926;2023-07-20T09:08:17;21.50;99.90
21698;DHT22;11010;49.548;11.926;2023-07-20T09:10:44;22.20;99.90
21698;DHT22;11010;49.548;11.926;2023-07-20T09:13:15;21.80;99.90
21698;DHT22;11010;49.548;11.926;2023-07-20T09:15:46;21.50;99.90
21698;DHT22;11010;49.548;11.926;2023-07-20T09:18:24;22.20;99.90
21698;DHT22;11010;49.548;11.926;2023-07-20T09:20:52;22.30;99.90
21698;DHT22;11010;49.548;11.926;2023-07-20T09:23:19;21.70;99.90
21698;DHT22;11010;49.548;11.926;2023-07-20T09:25:48;22.10;99.90
21698;DHT22;11010;49.548;11.926;2023-07-20T09:28:18;22.00;99.90
21698;DHT22;11010;49.548;11.926;2023-07-20T09:30:45;23.00;99.90
21698;DHT22;11010;49.548;11.926;2023-07-20T09:33:21;22.60;99.90
21698;DHT22;11010;49.548;11.926;2023-07-20T09:35:51;21.70;99.90
21698;DHT22;11010;49.548;11.926;2023-07-20T09:38:22;21.90;99.90
21698;DHT22;11010;49.548;11.926;2023-07-20T09:40:51;21.70;99.90
21698;DHT22;11010;49.548;11.926;2023-07-20T09:43:21;21.70;99.90
21698;DHT22;11010;49.548;11.926;2023-07-20T09:45:58;21.60;99.90
21698;DHT22;11010;49.548;11.926;2023-07-20T09:48:25;21.60;99.90
21698;DHT22;11010;49.548;11.926;2023-07-20T09:50:56;22.40;99.90
21698;DHT22;11010;49.548;11.926;2023-07-20T09:53:25;23.40;99.90
21698;DHT22;11010;49.548;11.926;2023-07-20T09:55:57;23.30;99.90
21698;DHT22;11010;49.548;11.926;2023-07-20T09:58:29;23.10;99.90
21698;DHT22;11010;49.548;11.926;2023-07-20T10:01:00;22.80;99.90
21698;DHT22;11010;49.548;11.926;2023-07-20T10:03:30;22.90;99.90
21698;DHT22;11010;49.548;11.926;2023-07-20T10:06:06;22.90;99.90
21698;DHT22;11010;49.548;11.926;2023-07-20T10:08:39;22.10;99.90
21698;DHT22;11010;49.548;11.926;2023-07-20T10:11:10;22.10;99.90
21698;DHT22;11010;49.548;11.926;2023-07-20T10:13:41;23.00;99.90
21698;DHT22;11010;49.548;11.926;2023-07-20T10:16:15;23.30;99.90
21698;DHT22;11010;49.548;11.926;2023-07-20T10:19:07;23.40;99.90
21698;DHT22;11010;49.548;11.926;2023-07-20T10:21:40;24.20;99.90
21698;DHT22;11010;49.548;11.926;2023-07-20T10:24:10;24.20;99.90
21698;DHT22;11010;49.548;11.926;2023-07-20T10:26:38;24.00;99.90
21698;DHT22;11010;49.548;11.926;2023-07-20T10:29:08;23.20;99.90
21698;DHT22;11010;49.548;11.926;2023-07-20T10:31:39;22.50;99.90
21698;DHT22;11010;49.548;11.926;2023-07-20T10:34:07;22.10;99.90
21698;DHT22;11010;49.548;11.926;2023-07-20T10:36:44;22.00;99.90
21698;DHT22;11010;49.548;11.926;2023-07-20T10:39:26;21.90;99.90
21698;DHT22;11010;49.548;11.926;2023-07-20T10:42:07;22.00;99.90
21698;DHT22;11010;49.548;11.926;2023-07-20T10:44:39;22.10;99.90
21698;DHT22;11010;49.548;11.926;2023-07-20T10:47:11;21.80;99.90
21698;DHT22;11010;49.548;11.926;2023-07-20T10:49:59;22.50;99.90
21698;DHT22;11010;49.548;11.926;2023-07-20T10:52:42;23.00;99.90
21698;DHT22;11010;49.548;11.926;2023-07-20T10:55:16;23.50;99.90
21698;DHT22;11010;49.548;11.926;2023-07-20T10:57:43;23.60;99.90
21698;DHT22;11010;49.548;11.926;2023-07-20T11:00:31;23.70;99.90
21698;DHT22;11010;49.548;11.926;2023-07-20T11:02:58;24.20;99.90
21698;DHT22;11010;49.548;11.926;2023-07-20T11:05:39;24.40;99.90
21698;DHT22;11010;49.548;11.926;2023-07-20T11:08:12;23.90;99.90
21698;DHT22;11010;49.548;11.926;2023-07-20T11:10:39;24.30;99.90
21698;DHT22;11010;49.548;11.926;2023-07-20T11:13:23;24.50;99.90
21698;DHT22;11010;49.548;11.926;2023-07-20T11:18:27;25.20;99.60
21698;DHT22;11010;49.548;11.926;2023-07-20T11:20:55;24.90;99.60
21698;DHT22;11010;49.548;11.926;2023-07-20T11:23:23;25.40;99.40
21698;DHT22;11010;49.548;11.926;2023-07-20T11:25:50;25.30;98.70
21698;DHT22;11010;49.548;11.926;2023-07-20T11:28:17;25.50;98.80
21698;DHT22;11010;49.548;11.926;2023-07-20T11:30:45;25.90;98.70
21698;DHT22;11010;49.548;11.926;2023-07-20T11:33:17;25.60;97.50
21698;DHT22;11010;49.548;11.926;2023-07-20T11:35:45;25.20;98.90
21698;DHT22;11010;49.548;11.926;2023-07-20T11:38:18;25.90;98.00
21698;DHT22;11010;49.548;11.926;2023-07-20T11:40:45;25.60;98.10
21698;DHT22;11010;49.548;11.926;2023-07-20T11:43:14;25.90;97.20
21698;DHT22;11010;49.548;11.926;2023-07-20T11:45:45;26.40;95.80
21698;DHT22;11010;49.548;11.926;2023-07-20T11:48:16;25.70;95.60
21698;DHT22;11010;49.548;11.926;2023-07-20T11:50:44;24.90;96.30
21698;DHT22;11010;49.548;11.926;2023-07-20T11:53:11;25.00;97.20
21698;DHT22;11010;49.548;11.926;2023-07-20T11:55:40;25.50;96.90
21698;DHT22;11010;49.548;11.926;2023-07-20T11:58:09;25.90;96.90
21698;DHT22;11010;49.548;11.926;2023-07-20T12:00:38;25.80;96.40
21698;DHT22;11010;49.548;11.926;2023-07-20T12:03:07;25.80;96.40
21698;DHT22;11010;49.548;11.926;2023-07-20T12:05:35;25.10;94.40
21698;DHT22;11010;49.548;11.926;2023-07-20T12:08:23;25.60;95.00
21698;DHT22;11010;49.548;11.926;2023-07-20T12:10:50;26.00;95.70
21698;DHT22;11010;49.548;11.926;2023-07-20T12:13:17;26.50;94.50
21698;DHT22;11010;49.548;11.926;2023-07-20T12:15:45;27.10;94.40
21698;DHT22;11010;49.548;11.926;2023-07-20T12:18:12;27.10;94.20
21698;DHT22;11010;49.548;11.926;2023-07-20T12:20:39;25.30;94.00
21698;DHT22;11010;49.548;11.926;2023-07-20T12:23:11;25.60;91.50
21698;DHT22;11010;49.548;11.926;2023-07-20T12:28:14;26.40;90.90
21698;DHT22;11010;49.548;11.926;2023-07-20T12:30:44;26.00;88.50
21698;DHT22;11010;49.548;11.926;2023-07-20T12:33:12;25.90;88.70
21698;DHT22;11010;49.548;11.926;2023-07-20T12:35:43;26.30;85.60
21698;DHT22;11010;49.548;11.926;2023-07-20T12:38:10;26.30;86.10
21698;DHT22;11010;49.548;11.926;2023-07-20T12:40:38;26.60;88.60
21698;DHT22;11010;49.548;11.926;2023-07-20T12:43:05;27.10;89.10
21698;DHT22;11010;49.548;11.926;2023-07-20T12:45:33;26.60;89.30
21698;DHT22;11010;49.548;11.926;2023-07-20T12:48:01;26.60;89.80
21698;DHT22;11010;49.548;11.926;2023-07-20T12:50:28;27.00;88.30
21698;DHT22;11010;49.548;11.926;2023-07-20T12:52:55;27.10;89.80
21698;DHT22;11010;49.548;11.926;2023-07-20T12:55:23;27.10;90.00
21698;DHT22;11010;49.548;11.926;2023-07-20T12:57:50;26.80;89.70
21698;DHT22;11010;49.548;11.926;2023-07-20T13:00:18;26.70;90.30
21698;DHT22;11010;49.548;11.926;2023-07-20T13:02:45;27.20;90.60
21698;DHT22;11010;49.548;11.926;2023-07-20T13:05:12;26.60;90.00
21698;DHT22;11010;49.548;11.926;2023-07-20T13:07:41;26.30;90.40
21698;DHT22;11010;49.548;11.926;2023-07-20T13:10:11;27.30;89.40
21698;DHT22;11010;49.548;11.926;2023-07-20T13:12:39;27.50;89.10
21698;DHT22;11010;49.548;11.926;2023-07-20T13:15:08;27.80;89.40
21698;DHT22;11010;49.548;11.926;2023-07-20T13:17:40;28.00;89.20
21698;DHT22;11010;49.548;11.926;2023-07-20T13:20:09;27.80;89.20
21698;DHT22;11010;49.548;11.926;2023-07-20T13:22:38;27.90;89.20
21698;DHT22;11010;49.548;11.926;2023-07-20T13:25:07;28.20;88.80
21698;DHT22;11010;49.548;11.926;2023-07-20T13:27:34;27.10;88.40
21698;DHT22;11010;49.548;11.926;2023-07-20T13:30:04;26.50;90.40
21698;DHT22;11010;49.548;11.926;2023-07-20T13:32:37;25.40;90.80
21698;DHT22;11010;49.548;11.926;2023-07-20T13:35:07;26.50;90.60
21698;DHT22;11010;49.548;11.926;2023-07-20T13:37:36;26.80;90.00
21698;DHT22;11010;49.548;11.926;2023-07-20T13:40:05;27.30;90.20
21698;DHT22;11010;49.548;11.926;2023-07-20T13:42:34;27.90;90.00
21698;DHT22;11010;49.548;11.926;2023-07-20T13:45:01;27.90;89.30
21698;DHT22;11010;49.548;11.926;2023-07-20T13:47:32;27.90;89.90
21698;DHT22;11010;49.548;11.926;2023-07-20T13:50:02;27.60;87.90
21698;DHT22;11010;49.548;11.926;2023-07-20T13:52:30;26.60;89.20
21698;DHT22;11010;49.548;11.926;2023-07-20T13:55:01;26.50;89.40
21698;DHT22;11010;49.548;11.926;2023-07-20T13:57:31;26.10;90.20
21698;DHT22;11010;49.548;11.926;2023-07-20T14:00:03;26.00;90.20
21698;DHT22;11010;49.548;11.926;2023-07-20T14:02:39;26.20;90.20
21698;DHT22;11010;49.548;11.926;2023-07-20T14:05:14;27.00;89.70
21698;DHT22;11010;49.548;11.926;2023-07-20T14:07:46;27.10;89.40
21698;DHT22;11010;49.548;11.926;2023-07-20T14:10:13;27.30;90.10
21698;DHT22;11010;49.548;11.926;2023-07-20T14:12:43;26.80;90.40
21698;DHT22;11010;49.548;11.926;2023-07-20T14:15:11;27.10;90.60
21698;DHT22;11010;49.548;11.926;2023-07-20T14:17:38;27.20;89.60
21698;DHT22;11010;49.548;11.926;2023-07-20T14:20:06;27.40;89.60
21698;DHT22;11010;49.548;11.926;2023-07-20T14:22:48;27.50;89.10
21698;DHT22;11010;49.548;11.926;2023-07-20T14:25:17;26.90;87.50
21698;DHT22;11010;49.548;11.926;2023-07-20T14:27:46;26.80;88.50
21698;DHT22;11010;49.548;11.926;2023-07-20T14:30:13;27.20;88.00
21698;DHT22;11010;49.548;11.926;2023-07-20T14:32:41;27.30;87.00
21698;DHT22;11010;49.548;11.926;2023-07-20T14:35:08;27.70;85.60
21698;DHT22;11010;49.548;11.926;2023-07-20T14:37:37;27.70;84.60
21698;DHT22;11010;49.548;11.926;2023-07-20T14:40:04;27.00;86.60
21698;DHT22;11010;49.548;11.926;2023-07-20T14:42:34;26.90;88.50
21698;DHT22;11010;49.548;11.926;2023-07-20T14:45:02;27.70;87.00
21698;DHT22;11010;49.548;11.926;2023-07-20T14:47:29;27.50;87.30
21698;DHT22;11010;49.548;11.926;2023-07-20T14:49:59;27.50;87.60
21698;DHT22;11010;49.548;11.926;2023-07-20T14:52:26;27.40;88.00
21698;DHT22;11010;49.548;11.926;2023-07-20T14:54:55;27.60;88.80
21698;DHT22;11010;49.548;11.926;2023-07-20T14:57:23;28.00;89.60
21698;DHT22;11010;49.548;11.926;2023-07-20T14:59:50;28.10;90.00
21698;DHT22;11010;49.548;11.926;2023-07-20T15:02:18;27.60;90.30
21698;DHT22;11010;49.548;11.926;2023-07-20T15:04:49;27.50;89.90
21698;DHT22;11010;49.548;11.926;2023-07-20T15:07:18;27.90;90.20
21698;DHT22;11010;49.548;11.926;2023-07-20T15:09:45;27.90;90.00
21698;DHT22;11010;49.548;11.926;2023-07-20T15:12:13;27.60;90.10
21698;DHT22;11010;49.548;11.926;2023-07-20T15:14:42;27.20;89.40
21698;DHT22;11010;49.548;11.926;2023-07-20T15:17:10;26.50;90.20
21698;DHT22;11010;49.548;11.926;2023-07-20T15:19:37;26.00;89.70
21698;DHT22;11010;49.548;11.926;2023-07-20T15:22:05;26.10;90.30
21698;DHT22;11010;49.548;11.926;2023-07-20T15:24:35;26.40;87.70
21698;DHT22;11010;49.548;11.926;2023-07-20T15:27:03;26.80;86.50
21698;DHT22;11010;49.548;11.926;2023-07-20T15:29:31;27.20;86.70
21698;DHT22;11010;49.548;11.926;2023-07-20T15:32:01;27.10;86.00
21698;DHT22;11010;49.548;11.926;2023-07-20T15:34:29;27.00;87.00
21698;DHT22;11010;49.548;11.926;2023-07-20T15:36:56;27.10;86.10
21698;DHT22;11010;49.548;11.926;2023-07-20T15:39:23;27.30;86.50
21698;DHT22;11010;49.548;11.926;2023-07-20T15:41:50;27.10;86.90
21698;DHT22;11010;49.548;11.926;2023-07-20T15:44:17;26.70;88.50
21698;DHT22;11010;49.548;11.926;2023-07-20T15:46:46;26.00;89.10